Time;durP1;ratioP1;P1;durP2;ratioP2;P2;SDS_P1;SDS_P2;PMS_P1;PMS_P2;Temp;Humidity;BMP_temperature;BMP_pressure;BME280_temperature;BME280_humidity;BME280_pressure;Samples;Min_cycle;Max_cycle;Signal;HPM_P1;HPM_P2
2021/05/30 00:01:22;;;;;;;4.47;1.25;;;;;;;32.14;16.88;94474.28;5036655;28;20049;-65
2021/05/30 00:03:49;;;;;;;3.28;1.48;;;;;;;32.05;16.95;94474.09;5037183;28;20057;-68
2021/05/30 00:06:17;;;;;;;2.60;1.50;;;;;;;32.40;16.85;94473.28;5037301;28;20053;-68
2021/05/30 00:08:44;;;;;;;2.20;1.60;;;;;;;31.07;17.66;94471.06;5037121;28;20370;-64
2021/05/30 00:11:11;;;;;;;3.55;1.50;;;;;;;32.13;16.93;94468.09;5036611;28;20045;-58
2021/05/30 00:13:39;;;;;;;1.65;1.30;;;;;;;31.57;17.25;94465.44;5036101;28;20041;-57
2021/05/30 00:16:06;;;;;;;1.92;1.23;;;;;;;31.43;17.38;94459.56;5037175;28;20045;-59
2021/05/30 00:18:33;;;;;;;2.58;1.42;;;;;;;31.32;17.82;94459.03;5037060;28;20045;-55
2021/05/30 00:21:01;;;;;;;1.50;1.30;;;;;;;32.17;17.14;94463.38;5035165;28;20060;-56
2021/05/30 00:23:28;;;;;;;1.83;1.50;;;;;;;31.83;17.26;94465.72;5036575;28;20049;-55
2021/05/30 00:25:55;;;;;;;2.53;1.30;;;;;;;31.63;17.38;94464.97;5036789;28;20052;-55
2021/05/30 00:28:22;;;;;;;1.75;1.23;;;;;;;31.09;18.27;94463.31;5036854;28;20686;-61
2021/05/30 00:30:50;;;;;;;1.80;1.25;;;;;;;31.39;17.46;94459.66;5036612;28;20045;-55
2021/05/30 00:33:17;;;;;;;2.25;1.40;;;;;;;31.77;17.68;94456.59;5036606;28;20037;-61
2021/05/30 00:35:45;;;;;;;1.58;1.30;;;;;;;31.34;17.70;94457.44;5036450;28;20056;-55
2021/05/30 00:38:12;;;;;;;4.25;1.67;;;;;;;31.85;16.80;94461.41;5036669;28;20045;-55
2021/05/30 00:40:41;;;;;;;1.42;1.20;;;;;;;31.57;17.17;94460.06;5034550;28;20049;-57
2021/05/30 00:43:09;;;;;;;1.77;1.35;;;;;;;31.26;17.42;94461.47;5036236;28;20049;-63
2021/05/30 00:45:36;;;;;;;2.22;1.20;;;;;;;31.68;17.17;94459.81;5036558;28;20068;-57
2021/05/30 00:48:04;;;;;;;1.95;1.40;;;;;;;31.26;17.37;94458.78;5036546;28;20055;-55
2021/05/30 00:50:31;;;;;;;1.83;1.40;;;;;;;31.88;16.82;94457.84;5036570;28;20380;-60
2021/05/30 00:52:59;;;;;;;2.33;1.55;;;;;;;31.67;16.63;94455.59;5035993;28;20052;-55
2021/05/30 00:55:26;;;;;;;2.00;1.08;;;;;;;31.21;17.47;94454.59;5036284;28;20057;-58
2021/05/30 00:57:53;;;;;;;3.10;1.27;;;;;;;31.53;17.11;94459.38;5035916;28;20049;-56
2021/05/30 01:00:21;;;;;;;2.70;1.38;;;;;;;31.77;16.46;94465.44;5036376;28;20056;-66
2021/05/30 01:02:48;;;;;;;3.17;1.45;;;;;;;31.88;16.36;94462.50;5035793;28;20049;-56
2021/05/30 01:05:15;;;;;;;4.40;1.20;;;;;;;31.76;16.36;94455.81;5036160;28;20041;-65
2021/05/30 01:07:45;;;;;;;3.15;1.30;;;;;;;32.11;16.25;94458.88;5036117;28;20448;-54
2021/05/30 01:10:32;;;;;;;3.60;1.40;;;;;;;32.08;16.05;94457.03;5035857;28;20052;-54
2021/05/30 01:13:00;;;;;;;3.63;1.50;;;;;;;31.87;16.30;94461.75;5035675;28;20053;-56
2021/05/30 01:15:30;;;;;;;3.08;1.40;;;;;;;32.09;16.43;94462.03;5035888;28;20041;-61
2021/05/30 01:17:57;;;;;;;2.83;1.50;;;;;;;31.43;16.90;94452.22;5035812;28;20045;-56
2021/05/30 01:20:25;;;;;;;2.35;1.70;;;;;;;31.46;16.78;94466.84;5025679;28;20368;-55
2021/05/30 01:22:53;;;;;;;2.20;1.60;;;;;;;31.64;16.73;94464.53;5027623;28;20056;-55
2021/05/30 01:25:22;;;;;;;2.10;1.70;;;;;;;31.63;16.50;94463.00;5035691;28;20052;-55
2021/05/30 01:27:51;;;;;;;1.92;1.48;;;;;;;31.75;16.30;94458.91;5035320;28;20045;-67
2021/05/30 01:30:20;;;;;;;2.03;1.38;;;;;;;31.48;16.74;94464.47;5035471;28;20407;-54
2021/05/30 01:32:49;;;;;;;1.65;1.30;;;;;;;32.45;15.88;94467.34;5034495;28;20060;-59
2021/05/30 01:35:17;;;;;;;2.83;1.50;;;;;;;32.28;15.98;94465.88;5035338;28;20371;-57
2021/05/30 01:37:44;;;;;;;1.45;1.30;;;;;;;31.57;16.79;94464.69;5035558;28;20079;-56
2021/05/30 01:40:12;;;;;;;1.98;1.27;;;;;;;31.58;16.55;94463.50;5035234;28;20041;-56
2021/05/30 01:42:39;;;;;;;2.72;1.23;;;;;;;31.57;16.54;94459.28;5035030;28;20338;-55
2021/05/30 01:45:07;;;;;;;1.92;1.58;;;;;;;31.52;16.89;94459.78;5023105;28;20464;-51
2021/05/30 01:47:39;;;;;;;2.63;1.38;;;;;;;31.24;17.00;94455.72;5015617;28;20054;-56
2021/05/30 01:50:09;;;;;;;3.40;1.40;;;;;;;31.34;17.22;94456.69;5015711;28;20056;-66
2021/05/30 01:52:36;;;;;;;3.15;1.45;;;;;;;31.27;17.37;94452.97;5023710;28;20052;-56
2021/05/30 01:55:05;;;;;;;2.33;1.55;;;;;;;30.92;17.66;94448.97;5035288;28;20045;-55
2021/05/30 01:57:43;;;;;;;3.75;1.30;;;;;;;31.08;17.55;94453.69;5034897;28;20057;-62
2021/05/30 02:00:11;;;;;;;2.22;1.30;;;;;;;31.22;17.38;94456.13;5035185;28;20057;-55
2021/05/30 02:02:39;;;;;;;1.65;1.40;;;;;;;30.76;17.69;94456.22;5034656;28;20049;-65
2021/05/30 02:05:07;;;;;;;2.00;1.45;;;;;;;31.18;17.31;94455.44;5034955;28;20049;-55
2021/05/30 02:07:34;;;;;;;1.90;1.40;;;;;;;31.43;17.36;94454.19;5035076;28;20053;-55
2021/05/30 02:10:03;;;;;;;2.00;1.40;;;;;;;31.09;17.60;94455.22;5033682;28;20044;-56
2021/05/30 02:12:33;;;;;;;2.88;1.40;;;;;;;30.98;17.48;94457.38;5034571;28;20045;-57
2021/05/30 02:15:01;;;;;;;1.80;1.50;;;;;;;30.80;17.75;94451.53;5034937;28;20356;-67
2021/05/30 02:17:29;;;;;;;2.63;1.48;;;;;;;30.97;17.61;94456.59;5035057;28;20042;-63
2021/05/30 02:19:57;;;;;;;3.35;1.60;;;;;;;31.38;17.05;94457.38;5050288;28;20045;-69
2021/05/30 02:22:24;;;;;;;1.83;1.52;;;;;;;31.43;16.92;94448.78;5034404;28;20388;-56
2021/05/30 02:24:52;;;;;;;2.17;1.40;;;;;;;31.35;16.86;94452.81;5034602;28;20045;-54
2021/05/30 02:27:19;;;;;;;2.85;1.45;;;;;;;31.46;16.93;94458.75;5024301;28;20056;-58
2021/05/30 02:29:46;;;;;;;2.60;1.40;;;;;;;31.75;16.63;94467.03;5014989;28;20376;-57
2021/05/30 02:32:14;;;;;;;1.83;1.25;;;;;;;31.60;16.68;94458.44;5018880;28;20049;-60
2021/05/30 02:34:43;;;;;;;2.40;1.50;;;;;;;30.94;17.45;94462.03;5034588;28;20052;-57
2021/05/30 02:37:14;;;;;;;1.63;1.30;;;;;;;30.75;17.41;94462.81;5034791;28;20049;-56
2021/05/30 02:39:42;;;;;;;;;;;;;;;31.60;16.80;94461.91;5034723;28;20056;-54
2021/05/30 02:42:09;;;;;;;3.97;1.63;;;;;;;31.09;17.47;94459.84;5023066;28;19917;-56
2021/05/30 02:44:37;;;;;;;2.17;1.63;;;;;;;31.20;17.26;94468.53;5034580;28;20041;-61
2021/05/30 02:47:04;;;;;;;1.50;1.35;;;;;;;30.85;17.75;94459.91;5034703;28;20056;-65
2021/05/30 02:49:33;;;;;;;1.80;1.20;;;;;;;30.67;18.22;94470.25;5034740;28;20042;-55
2021/05/30 02:52:01;;;;;;;2.33;1.60;;;;;;;31.35;17.32;94466.31;5034036;28;20058;-58
2021/05/30 02:54:28;;;;;;;2.00;1.40;;;;;;;31.05;17.46;94465.31;5034370;28;20451;-57
2021/05/30 02:56:55;;;;;;;2.13;1.40;;;;;;;30.71;18.03;94464.78;5034322;28;20053;-56
2021/05/30 02:59:22;;;;;;;1.60;1.40;;;;;;;30.96;17.68;94467.78;5034489;28;20056;-59
2021/05/30 03:01:50;;;;;;;2.55;1.45;;;;;;;30.89;17.99;94462.53;5034087;28;20049;-61
2021/05/30 03:04:17;;;;;;;1.88;1.35;;;;;;;30.79;18.15;94466.97;5034130;28;20049;-60
2021/05/30 03:06:44;;;;;;;7.13;1.42;;;;;;;30.61;18.38;94461.88;5034463;28;20050;-60
2021/05/30 03:09:11;;;;;;;1.92;1.35;;;;;;;30.77;17.93;94463.16;5034177;28;20052;-58
2021/05/30 03:11:39;;;;;;;3.33;1.60;;;;;;;30.84;18.01;94460.31;5034453;28;20459;-55
2021/05/30 03:14:06;;;;;;;1.73;1.40;;;;;;;30.52;18.17;94460.84;5033651;28;20383;-59
2021/05/30 03:16:33;;;;;;;3.03;1.23;;;;;;;30.68;17.95;94460.97;5034483;28;20444;-62
2021/05/30 03:19:00;;;;;;;2.15;1.42;;;;;;;31.14;17.55;94460.13;5033206;28;20448;-56
2021/05/30 03:21:28;;;;;;;3.17;1.55;;;;;;;31.08;17.72;94461.78;5033303;28;20372;-61
2021/05/30 03:23:55;;;;;;;3.88;1.50;;;;;;;30.87;17.67;94467.59;5033540;28;20045;-61
2021/05/30 03:26:22;;;;;;;3.05;1.77;;;;;;;30.57;18.36;94460.38;5034054;28;20053;-57
2021/05/30 03:28:49;;;;;;;2.95;1.50;;;;;;;31.21;17.65;94460.00;5034359;28;20045;-53
2021/05/30 03:31:16;;;;;;;3.97;1.40;;;;;;;30.82;17.65;94463.44;5034240;28;20045;-56
2021/05/30 03:33:44;;;;;;;3.20;1.60;;;;;;;30.89;17.72;94460.59;5033472;28;20045;-57
2021/05/30 03:36:16;;;;;;;2.00;1.50;;;;;;;30.80;17.98;94467.72;5033292;28;20049;-56
2021/05/30 03:39:03;;;;;;;1.40;1.23;;;;;;;30.54;18.13;94467.38;5114754;27;20179;-57
2021/05/30 03:41:39;;;;;;;1.70;1.30;;;;;;;30.73;18.27;94463.22;5133163;28;20058;-61
2021/05/30 03:44:08;;;;;;;1.60;1.23;;;;;;;30.62;18.88;94462.63;5113814;28;20043;-55
2021/05/30 03:46:37;;;;;;;4.47;1.35;;;;;;;30.84;18.11;94463.78;5112282;28;20074;-56
2021/05/30 03:49:07;;;;;;;1.85;1.30;;;;;;;30.65;18.40;94462.56;5112641;28;20054;-68
2021/05/30 03:51:34;;;;;;;4.70;1.33;;;;;;;30.28;18.83;94460.84;5112386;28;20044;-57
2021/05/30 03:54:01;;;;;;;2.92;1.33;;;;;;;31.23;17.83;94465.00;5111841;28;20048;-58
2021/05/30 03:56:28;;;;;;;2.13;1.55;;;;;;;31.11;18.21;94466.34;5111799;28;20051;-62
2021/05/30 03:58:57;;;;;;;3.53;1.40;;;;;;;31.10;18.18;94459.44;5112230;28;20382;-59
2021/05/30 04:01:24;;;;;;;3.70;1.40;;;;;;;30.74;18.58;94458.59;5111029;28;20439;-67
2021/05/30 04:03:51;;;;;;;2.97;1.63;;;;;;;30.59;18.77;94464.19;5110503;28;20048;-56
2021/05/30 04:06:18;;;;;;;4.50;1.35;;;;;;;30.61;18.96;94461.88;5111645;28;20056;-58
2021/05/30 04:08:47;;;;;;;2.80;1.40;;;;;;;30.86;18.37;94468.75;5111687;28;20040;-56
2021/05/30 04:11:15;;;;;;;2.05;1.58;;;;;;;30.31;18.89;94470.06;5111795;28;20473;-59
2021/05/30 04:13:42;;;;;;;2.33;1.25;;;;;;;31.07;17.82;94465.66;5111411;28;20047;-56
2021/05/30 04:16:09;;;;;;;2.17;1.30;;;;;;;31.10;18.37;94464.84;5110392;28;20454;-57
2021/05/30 04:18:37;;;;;;;1.90;1.40;;;;;;;30.96;18.21;94462.38;5111774;28;20051;-60
2021/05/30 04:21:05;;;;;;;1.65;1.35;;;;;;;30.73;18.54;94473.25;5110961;28;20074;-56
2021/05/30 04:23:32;;;;;;;2.65;1.60;;;;;;;30.76;18.34;94469.72;5111404;28;20040;-58
2021/05/30 04:26:00;;;;;;;3.85;1.50;;;;;;;31.39;18.01;94467.00;5111424;28;20059;-64
2021/05/30 04:28:27;;;;;;;1.92;1.40;;;;;;;30.63;18.36;94470.31;5111791;28;20340;-60
2021/05/30 04:30:54;;;;;;;1.88;1.30;;;;;;;30.92;18.25;94467.09;5111739;28;20354;-61
2021/05/30 04:33:21;;;;;;;2.65;1.45;;;;;;;31.59;17.14;94467.75;5111326;28;20062;-58
2021/05/30 04:35:49;;;;;;;2.65;1.70;;;;;;;31.25;18.23;94470.75;5111513;28;20051;-55
2021/05/30 04:38:19;;;;;;;2.42;1.48;;;;;;;30.83;18.63;94466.88;5100310;28;20087;-55
2021/05/30 04:40:47;;;;;;;2.10;1.38;;;;;;;30.75;18.85;94462.81;5126208;28;20043;-64
2021/05/30 04:43:15;;;;;;;1.85;1.48;;;;;;;30.91;18.64;94462.88;5122493;28;20044;-54
2021/05/30 04:45:43;;;;;;;3.42;1.67;;;;;;;30.81;18.76;94458.44;5099286;28;20052;-59
2021/05/30 04:48:11;;;;;;;3.20;1.23;;;;;;;31.32;18.74;94461.75;5108711;28;20374;-57
2021/05/30 04:50:38;;;;;;;1.58;1.25;;;;;;;31.83;17.33;94460.31;5097506;28;20055;-61
2021/05/30 04:53:05;;;;;;;2.38;1.27;;;;;;;31.93;17.54;94447.72;5097292;28;20051;-56
2021/05/30 04:55:33;;;;;;;4.95;1.30;;;;;;;31.03;18.60;94451.47;5097618;28;20051;-55
2021/05/30 04:58:00;;;;;;;1.90;1.48;;;;;;;30.61;19.03;94442.97;5097001;28;20055;-55
2021/05/30 05:00:27;;;;;;;2.53;1.40;;;;;;;31.10;18.76;94448.63;5097569;28;20051;-63
2021/05/30 05:02:54;;;;;;;4.65;1.30;;;;;;;31.01;18.96;94434.94;5096187;28;20056;-60
2021/05/30 05:05:21;;;;;;;2.15;1.58;;;;;;;30.60;19.33;94443.38;5097312;28;20044;-65
2021/05/30 05:07:48;;;;;;;2.15;1.30;;;;;;;30.92;18.67;94450.91;5096991;28;20369;-61
2021/05/30 05:10:15;;;;;;;2.08;1.33;;;;;;;31.80;17.99;94451.09;5110230;28;20046;-68
2021/05/30 05:12:42;;;;;;;2.78;1.40;;;;;;;31.50;18.22;94454.81;5114127;27;20048;-62
2021/05/30 05:15:10;;;;;;;2.90;1.20;;;;;;;31.86;17.79;94460.22;5097188;28;20071;-56
2021/05/30 05:17:37;;;;;;;3.58;1.40;;;;;;;31.52;18.31;94451.69;5096916;28;20047;-61
2021/05/30 05:20:05;;;;;;;1.83;1.33;;;;;;;31.82;18.13;94456.84;5097117;28;20056;-64
2021/05/30 05:22:32;;;;;;;1.80;1.30;;;;;;;31.12;18.90;94459.78;5095179;28;20044;-56
2021/05/30 05:25:00;;;;;;;4.32;1.63;;;;;;;30.98;18.84;94457.38;5096807;28;20358;-57
2021/05/30 05:27:27;;;;;;;2.20;1.48;;;;;;;31.49;18.48;94460.59;5096599;28;20040;-57
2021/05/30 05:29:55;;;;;;;2.95;1.60;;;;;;;31.17;18.29;94459.31;5096915;28;20047;-68
2021/05/30 05:32:22;;;;;;;3.30;1.63;;;;;;;31.20;18.76;94469.28;5096707;28;20051;-54
2021/05/30 05:34:49;;;;;;;2.85;1.58;;;;;;;31.68;17.91;94469.84;5096756;28;20039;-56
2021/05/30 05:37:16;;;;;;;3.00;1.50;;;;;;;31.61;18.60;94468.06;5092342;28;20362;-69
2021/05/30 05:39:43;;;;;;;1.90;1.50;;;;;;;31.43;18.69;94470.38;5105250;28;20059;-59
2021/05/30 05:42:11;;;;;;;2.90;1.50;;;;;;;31.65;18.64;94466.06;5116664;28;20044;-58
2021/05/30 05:44:38;;;;;;;2.33;1.52;;;;;;;31.88;18.34;94473.31;5096421;28;20055;-55
2021/05/30 05:47:06;;;;;;;2.75;1.45;;;;;;;32.19;17.97;94474.53;5096421;28;20332;-56
2021/05/30 05:49:34;;;;;;;2.22;1.42;;;;;;;32.49;17.20;94468.03;5096524;28;20078;-55
2021/05/30 05:52:01;;;;;;;2.40;1.52;;;;;;;31.46;17.87;94478.41;5096419;28;20048;-55
2021/05/30 05:54:28;;;;;;;9.50;1.83;;;;;;;32.12;17.69;94471.97;5095997;28;20052;-57
2021/05/30 05:56:56;;;;;;;4.47;1.48;;;;;;;31.78;18.21;94480.47;5096186;28;20043;-57
2021/05/30 05:59:23;;;;;;;2.60;1.40;;;;;;;31.59;18.01;94483.94;5096248;28;20051;-56
2021/05/30 06:01:50;;;;;;;1.60;1.38;;;;;;;32.41;17.14;94474.81;5095212;28;20343;-56
2021/05/30 06:04:17;;;;;;;5.20;1.98;;;;;;;31.87;17.71;94477.97;5095901;28;20051;-65
2021/05/30 06:06:44;;;;;;;2.33;1.40;;;;;;;31.94;17.55;94477.03;5095938;28;20509;-66
2021/05/30 06:09:11;;;;;;;2.30;1.38;;;;;;;32.13;17.07;94486.25;5100024;28;20047;-55
2021/05/30 06:11:38;;;;;;;2.38;1.40;;;;;;;32.57;16.55;94489.50;5116414;28;20048;-58
2021/05/30 06:14:05;;;;;;;2.00;1.50;;;;;;;31.65;17.96;94484.22;5100644;28;20048;-69
2021/05/30 06:16:33;;;;;;;2.85;1.38;;;;;;;31.41;18.08;94486.25;5095762;28;20052;-63
2021/05/30 06:19:00;;;;;;;2.92;2.50;;;;;;;31.61;17.95;94484.28;5095940;28;20050;-62
2021/05/30 06:21:27;;;;;;;3.70;3.08;;;;;;;32.07;17.26;94480.59;5095967;28;20052;-63
2021/05/30 06:23:54;;;;;;;4.93;3.10;;;;;;;32.28;17.31;94479.38;5095404;28;20401;-59
2021/05/30 06:26:21;;;;;;;6.05;4.10;;;;;;;32.29;17.48;94491.72;5095425;28;20040;-66
2021/05/30 06:28:48;;;;;;;5.53;4.55;;;;;;;32.60;17.11;94488.66;5095910;28;20047;-65
2021/05/30 06:31:16;;;;;;;4.38;3.40;;;;;;;32.60;17.40;94491.38;5095739;28;20458;-64
2021/05/30 06:33:43;;;;;;;3.60;3.28;;;;;;;32.98;16.91;94486.91;5095278;28;20051;-63
2021/05/30 06:36:10;;;;;;;4.63;3.90;;;;;;;33.14;17.08;94494.25;5088504;28;20075;-56
2021/05/30 06:38:37;;;;;;;5.10;3.55;;;;;;;32.63;17.24;94493.22;5094229;28;20052;-57
2021/05/30 06:41:04;;;;;;;7.57;3.15;;;;;;;32.95;16.59;94498.59;5115359;28;20054;-57
2021/05/30 06:43:31;;;;;;;5.55;3.05;;;;;;;32.35;17.39;94494.69;5105924;28;20047;-68
2021/05/30 06:45:59;;;;;;;4.57;2.47;;;;;;;32.84;16.55;94494.66;5094810;28;20362;-58
2021/05/30 06:48:26;;;;;;;3.33;2.30;;;;;;;32.50;17.19;94493.91;5095287;28;20386;-57
2021/05/30 06:53:39;;;;;;;2.80;2.10;;;;;;;32.98;17.16;94503.16;5094966;28;20052;-56
2021/05/30 06:56:06;;;;;;;4.38;1.75;;;;;;;32.27;17.75;94509.53;5095060;28;20064;-54
2021/05/30 06:58:34;;;;;;;3.40;1.95;;;;;;;33.32;17.02;94512.75;5093240;28;20063;-56
2021/05/30 07:01:01;;;;;;;2.58;2.03;;;;;;;32.45;17.25;94510.63;5094964;28;20058;-55
2021/05/30 07:03:28;;;;;;;4.22;2.38;;;;;;;33.52;16.41;94521.47;5095097;28;20044;-55
2021/05/30 07:05:55;;;;;;;4.00;2.63;;;;;;;32.65;17.34;94515.19;5095132;28;20043;-66
2021/05/30 07:08:22;;;;;;;2.85;2.00;;;;;;;32.65;16.99;94515.19;5094857;28;20051;-63
2021/05/30 07:10:49;;;;;;;4.30;2.25;;;;;;;32.81;16.80;94515.22;5094448;28;20472;-57
2021/05/30 07:13:17;;;;;;;2.63;2.03;;;;;;;32.61;17.28;94512.59;5094803;28;20331;-62
2021/05/30 07:15:44;;;;;;;3.70;1.70;;;;;;;32.56;16.85;94515.81;5095234;28;20044;-68
2021/05/30 07:18:11;;;;;;;3.03;2.03;;;;;;;32.91;16.40;94514.19;5095358;28;20434;-64
2021/05/30 07:20:42;;;;;;;5.90;1.75;;;;;;;32.99;16.96;94510.09;5094781;28;20052;-56
2021/05/30 07:23:10;;;;;;;3.53;1.83;;;;;;;33.45;16.11;94508.13;5095104;28;20047;-55
2021/05/30 07:25:38;;;;;;;2.70;1.60;;;;;;;33.21;16.54;94512.25;5094916;28;20059;-55
2021/05/30 07:28:06;;;;;;;3.70;1.77;;;;;;;33.08;16.93;94517.63;5114363;28;20509;-62
2021/05/30 07:30:34;;;;;;;4.72;1.80;;;;;;;33.19;16.82;94512.66;5094823;28;20044;-54
2021/05/30 07:33:02;;;;;;;4.50;1.83;;;;;;;33.58;16.70;94503.50;5092630;28;20079;-62
2021/05/30 07:35:30;;;;;;;3.90;1.58;;;;;;;33.01;16.79;94505.00;5091829;28;20055;-59
2021/05/30 07:37:58;;;;;;;3.67;1.80;;;;;;;33.60;16.48;94503.84;5093089;28;20051;-65
2021/05/30 07:40:26;;;;;;;3.25;1.75;;;;;;;34.03;16.02;94500.63;5093741;28;20051;-70
2021/05/30 07:42:54;;;;;;;2.97;1.42;;;;;;;33.60;16.27;94503.06;5094217;28;20040;-63
2021/05/30 07:45:22;;;;;;;2.40;1.55;;;;;;;33.78;16.02;94497.13;5094322;28;20044;-63
2021/05/30 07:47:49;;;;;;;2.15;1.40;;;;;;;33.88;15.82;94509.66;5090426;28;20043;-62
2021/05/30 07:50:17;;;;;;;2.63;1.63;;;;;;;33.59;16.15;94502.31;5093993;28;20058;-61
2021/05/30 07:52:45;;;;;;;2.35;1.42;;;;;;;33.55;16.25;94500.88;5091969;28;20054;-61
2021/05/30 07:55:13;;;;;;;5.15;1.50;;;;;;;33.76;15.89;94505.69;5093986;28;20047;-66
2021/05/30 07:57:40;;;;;;;7.82;6.38;;;;;;;33.97;15.98;94488.06;5095814;28;20380;-64
2021/05/30 08:00:13;;;;;;;18.55;13.13;;;;;;;34.22;16.16;94498.91;5091871;28;20051;-61
2021/05/30 08:02:43;;;;;;;9.60;8.43;;;;;;;34.29;15.95;94487.81;5092776;28;20044;-61
2021/05/30 08:05:13;;;;;;;7.35;4.30;;;;;;;34.21;15.75;94497.38;5094071;28;20044;-69
2021/05/30 08:07:40;;;;;;;5.15;2.92;;;;;;;34.20;15.84;94487.72;5093664;28;20063;-64
2021/05/30 08:10:08;;;;;;;3.30;2.40;;;;;;;34.02;16.12;94484.78;5093539;28;20048;-61
2021/05/30 08:12:35;;;;;;;3.67;2.20;;;;;;;35.67;14.89;94495.22;5093826;28;20059;-56
2021/05/30 08:15:04;;;;;;;3.33;2.20;;;;;;;35.05;15.17;94480.72;5094076;28;20374;-58
2021/05/30 08:17:31;;;;;;;3.50;2.05;;;;;;;34.78;15.34;94476.56;5075681;28;20045;-58
2021/05/30 08:19:59;;;;;;;4.90;1.60;;;;;;;35.13;15.08;94476.56;5092882;28;20378;-53
2021/05/30 08:22:26;;;;;;;3.92;1.90;;;;;;;34.66;15.93;94482.03;5091386;28;20509;-56
2021/05/30 08:24:53;;;;;;;2.63;1.60;;;;;;;35.21;14.96;94472.41;5076350;28;20052;-53
2021/05/30 08:27:20;;;;;;;3.92;2.00;;;;;;;35.03;14.69;94489.31;5104063;28;20473;-55
2021/05/30 08:29:48;;;;;;;2.95;2.08;;;;;;;34.75;15.14;94480.16;5100115;28;20040;-53
2021/05/30 08:32:15;;;;;;;3.13;1.77;;;;;;;34.42;15.62;94485.13;5098167;28;20470;-51
2021/05/30 08:34:44;;;;;;;1.90;1.40;;;;;;;34.97;15.29;94485.66;5097837;28;20059;-53
2021/05/30 08:37:13;;;;;;;3.42;1.60;;;;;;;35.11;15.31;94489.81;5097582;28;20047;-53
2021/05/30 08:39:41;;;;;;;2.00;1.55;;;;;;;34.68;15.09;94480.41;5097341;28;20040;-61
2021/05/30 08:42:08;;;;;;;3.30;1.42;;;;;;;35.27;14.74;94484.22;5096111;28;20118;-54
2021/05/30 08:44:35;;;;;;;2.83;1.70;;;;;;;34.26;15.84;94494.13;5077397;28;20451;-63
2021/05/30 08:47:03;;;;;;;2.55;1.67;;;;;;;35.84;13.93;94490.34;5091409;28;20044;-60
2021/05/30 08:49:30;;;;;;;3.25;1.80;;;;;;;35.26;15.25;94488.13;5097245;28;20040;-56
2021/05/30 08:51:57;;;;;;;1.83;1.50;;;;;;;35.32;15.62;94483.63;5097517;28;20472;-54
2021/05/30 08:54:24;;;;;;;3.50;1.90;;;;;;;35.24;15.62;94482.38;5091375;28;20056;-50
2021/05/30 08:56:52;;;;;;;3.40;1.75;;;;;;;35.86;14.29;94487.16;5092194;28;20366;-62
2021/05/30 08:59:56;;;;;;;3.53;1.70;;;;;;;35.36;14.84;94484.28;5096940;28;20059;-59
2021/05/30 09:02:17;;;;;;;2.85;1.70;;;;;;;34.75;15.60;94474.72;5095388;28;20044;-77
2021/05/30 09:04:50;;;;;;;2.78;1.73;;;;;;;34.80;15.43;94481.56;5096864;28;20362;-61
2021/05/30 09:07:18;;;;;;;4.75;1.80;;;;;;;35.25;14.81;94483.91;5088890;28;20048;-58
2021/05/30 09:09:47;;;;;;;4.35;1.67;;;;;;;36.05;14.81;94478.66;5100278;28;20043;-74
2021/05/30 09:12:25;;;;;;;2.88;1.80;;;;;;;35.73;14.56;94481.81;5117705;28;20477;-68
2021/05/30 09:14:55;;;;;;;3.63;1.52;;;;;;;35.59;14.23;94474.16;5099893;28;20047;-59
2021/05/30 09:17:26;;;;;;;3.42;1.98;;;;;;;35.42;14.26;94468.97;5117659;28;20043;-68
2021/05/30 09:19:55;;;;;;;3.78;1.85;;;;;;;35.66;14.25;94480.13;5116733;28;20055;-69
2021/05/30 09:22:23;;;;;;;5.70;2.15;;;;;;;35.06;15.27;94474.09;5117445;28;20044;-68
2021/05/30 09:24:50;;;;;;;3.88;2.17;;;;;;;35.61;14.83;94467.06;5117233;28;20051;-67
2021/05/30 09:27:22;;;;;;;2.45;1.70;;;;;;;34.99;15.03;94466.19;5096120;28;20044;-63
2021/05/30 09:30:07;;;;;;;;;;;;;;;35.14;15.12;94453.66;5092368;28;20331;-55
2021/05/30 09:32:55;;;;;;;2.60;1.85;;;;;;;35.28;15.71;94455.84;5117084;28;19918;-69
2021/05/30 09:35:27;;;;;;;2.28;1.50;;;;;;;35.70;15.37;94459.00;5076368;28;20063;-56
2021/05/30 09:38:06;;;;;;;2.15;1.40;;;;;;;35.67;14.99;94456.41;5076300;28;20148;-66
2021/05/30 09:40:38;;;;;;;3.72;1.73;;;;;;;35.61;14.94;94450.78;5107123;28;20047;-58
2021/05/30 09:43:11;;;;;;;3.58;1.65;;;;;;;35.77;15.30;94452.50;5116849;28;20370;-66
2021/05/30 09:45:39;;;;;;;1.70;1.48;;;;;;;35.50;15.04;94451.19;5116972;28;20462;-63
2021/05/30 09:48:21;;;;;;;2.13;1.55;;;;;;;35.23;15.46;94448.28;5116686;28;20473;-69
2021/05/30 09:51:04;;;;;;;4.47;1.80;;;;;;;35.99;14.27;94442.34;5099180;28;20366;-69
2021/05/30 09:53:41;;;;;;;6.90;2.00;;;;;;;35.57;14.97;94430.38;5096342;28;20489;-68
2021/05/30 09:56:34;;;;;;;2.22;1.70;;;;;;;36.24;15.87;94427.00;5099053;28;20367;-60
2021/05/30 09:59:06;;;;;;;3.08;1.77;;;;;;;36.70;14.92;94430.59;5106262;28;20074;-56
2021/05/30 10:01:58;;;;;;;9.68;1.92;;;;;;;37.47;14.04;94414.03;5116315;28;20050;-61
2021/05/30 10:04:33;;;;;;;3.72;1.80;;;;;;;36.71;14.39;94413.78;5095973;28;20050;-69
2021/05/30 10:07:04;;;;;;;4.53;1.60;;;;;;;36.55;14.85;94410.59;5096145;28;20060;-74
2021/05/30 10:09:33;;;;;;;4.20;1.90;;;;;;;37.01;14.97;94400.50;5089449;28;20031;-70
2021/05/30 10:12:00;;;;;;;4.82;2.20;;;;;;;37.02;14.52;94394.59;5115901;28;20478;-65
2021/05/30 10:14:28;;;;;;;5.22;1.70;;;;;;;37.84;14.31;94396.34;5116241;28;20043;-57
2021/05/30 10:16:55;;;;;;;3.92;1.70;;;;;;;37.47;13.68;94400.41;5116454;28;20082;-57
2021/05/30 10:19:41;;;;;;;2.67;1.70;;;;;;;37.00;13.40;94401.69;5115969;28;20078;-55
2021/05/30 10:22:09;;;;;;;4.47;1.52;;;;;;;37.51;13.61;94390.84;5098640;28;20059;-57
2021/05/30 10:24:41;;;;;;;6.95;1.48;;;;;;;37.05;14.17;94387.47;5116110;28;20039;-62
2021/05/30 10:27:20;;;;;;;;;;;;;;;37.59;14.93;94388.56;5116524;28;20054;-57
2021/05/30 10:30:15;;;;;;;3.92;1.60;;;;;;;37.76;14.29;94391.69;5115219;28;19912;-60
2021/05/30 10:32:47;;;;;;;4.10;2.13;;;;;;;37.52;14.89;94392.38;5107200;28;20044;-63
2021/05/30 10:35:20;;;;;;;3.33;1.95;;;;;;;37.29;14.78;94384.88;5095592;28;20071;-56
2021/05/30 10:37:52;;;;;;;4.25;1.95;;;;;;;37.33;14.49;94397.13;5077450;28;20063;-66
2021/05/30 10:40:22;;;;;;;3.50;1.70;;;;;;;37.61;14.07;94391.56;5112292;28;20039;-57
2021/05/30 10:43:11;;;;;;;4.50;2.00;;;;;;;37.14;14.83;94392.88;5115723;28;20058;-56
2021/05/30 10:45:41;;;;;;;7.22;1.98;;;;;;;37.24;14.72;94386.22;5115593;28;20059;-61
2021/05/30 10:48:09;;;;;;;6.55;2.05;;;;;;;37.17;14.45;94386.50;5114340;28;20047;-58
2021/05/30 10:50:41;;;;;;;4.03;1.80;;;;;;;37.27;14.63;94382.59;5115123;28;20047;-64
2021/05/30 10:53:34;;;;;;;4.03;1.85;;;;;;;37.63;14.03;94398.06;5115675;28;20059;-63
2021/05/30 10:56:30;;;;;;;3.35;2.00;;;;;;;36.57;14.78;94391.84;5097412;28;20082;-62
2021/05/30 10:59:06;;;;;;;2.85;1.67;;;;;;;36.26;14.77;94391.94;5109983;28;20450;-64
2021/05/30 11:01:38;;;;;;;5.25;1.80;;;;;;;36.97;15.01;94399.88;5115586;28;20077;-59
2021/05/30 11:04:30;;;;;;;5.75;1.75;;;;;;;36.44;14.58;94394.72;5110206;28;20359;-60
2021/05/30 11:07:00;;;;;;;;;;;;;;;37.54;14.27;94400.09;5106947;27;20059;-63
2021/05/30 11:10:09;;;;;;;4.05;2.00;;;;;;;36.25;14.48;94398.59;5102102;28;19912;-56
2021/05/30 11:12:51;;;;;;;4.97;2.33;;;;;;;36.57;14.78;94397.28;5109681;28;20043;-54
2021/05/30 11:15:20;;;;;;;7.82;1.90;;;;;;;35.82;15.25;94397.53;5115278;28;20047;-58
2021/05/30 11:17:52;;;;;;;1.75;1.63;;;;;;;35.33;15.38;94400.91;5115305;28;20342;-52
2021/05/30 11:20:41;;;;;;;3.00;1.60;;;;;;;35.81;14.79;94393.31;5115007;28;20047;-61
2021/05/30 11:23:13;;;;;;;2.65;2.17;;;;;;;35.42;14.99;94392.88;5114789;28;20044;-59
2021/05/30 11:25:59;;;;;;;2.63;1.77;;;;;;;36.33;14.58;94399.84;5115175;28;20388;-59
2021/05/30 11:28:30;;;;;;;2.63;1.63;;;;;;;36.41;14.13;94398.31;5094928;28;20044;-55
2021/05/30 11:31:00;;;;;;;1.92;1.30;;;;;;;35.36;15.13;94383.00;5115146;28;20047;-59
2021/05/30 11:33:27;;;;;;;3.30;1.70;;;;;;;36.18;14.33;94388.00;5114585;28;20047;-55
2021/05/30 11:36:01;;;;;;;2.53;2.25;;;;;;;36.19;14.43;94389.53;5114713;28;20047;-54
2021/05/30 11:38:42;;;;;;;2.30;1.70;;;;;;;36.08;14.67;94393.41;5113778;28;20062;-55
2021/05/30 11:41:11;;;;;;;2.40;1.90;;;;;;;35.22;15.46;94392.41;5114912;28;20492;-55
2021/05/30 11:43:38;;;;;;;2.65;1.58;;;;;;;36.09;14.48;94381.31;5114736;28;20362;-55
2021/05/30 11:46:13;;;;;;;2.35;1.70;;;;;;;36.64;14.33;94389.56;5114850;28;20444;-57
2021/05/30 11:48:42;;;;;;;3.13;1.90;;;;;;;36.42;14.47;94380.78;5114668;28;20047;-53